createdAt,value
2022-09-25T00:01:19.337Z,97.50
2022-09-25T00:06:24.388Z,97.40
2022-09-25T00:11:29.505Z,97.40
2022-09-25T00:16:33.116Z,97.30
2022-09-25T00:21:36.499Z,97.20
2022-09-25T00:26:41.858Z,97.10
2022-09-25T00:31:44.270Z,97.10
2022-09-25T00:36:46.681Z,97.00
2022-09-25T00:41:49.235Z,96.90
2022-09-25T00:46:51.689Z,96.80
2022-09-25T00:52:02.431Z,96.80
2022-09-25T00:57:08.975Z,96.60
2022-09-25T01:02:17.021Z,96.50
2022-09-25T01:07:20.089Z,96.50
2022-09-25T01:12:22.609Z,96.40
2022-09-25T01:17:35.571Z,96.30
2022-09-25T01:22:56.185Z,96.20
2022-09-25T01:28:16.952Z,96.10
2022-09-25T01:33:32.610Z,96.10
2022-09-25T01:38:47.017Z,96.00
2022-09-25T01:43:56.603Z,95.90
2022-09-25T01:49:08.347Z,95.80
2022-09-25T01:54:24.858Z,95.80
2022-09-25T01:59:36.100Z,95.70
2022-09-25T02:05:02.447Z,95.60
2022-09-25T02:10:32.520Z,95.50
2022-09-25T02:15:43.066Z,95.50
2022-09-25T02:20:55.960Z,95.40
2022-09-25T02:26:14.797Z,95.30
2022-09-25T02:31:18.078Z,95.20
2022-09-25T02:36:23.241Z,95.10
2022-09-25T02:42:05.395Z,95.00
2022-09-25T02:47:18.726Z,94.80
2022-09-25T02:52:48.021Z,94.70
2022-09-25T02:57:58.511Z,94.60
2022-09-25T03:03:03.996Z,94.60
2022-09-25T03:08:25.629Z,94.50
2022-09-25T03:13:32.141Z,94.40
2022-09-25T03:18:34.576Z,94.30
2022-09-25T03:23:37.000Z,94.20
2022-09-25T03:28:39.492Z,94.00
2022-09-25T03:33:43.098Z,93.90
2022-09-25T03:38:47.750Z,93.80
2022-09-25T03:43:51.961Z,93.80
2022-09-25T03:48:55.098Z,93.90
2022-09-25T03:53:57.570Z,93.70
2022-09-25T03:59:00.247Z,93.60
2022-09-25T04:04:03.445Z,93.60
2022-09-25T04:09:05.899Z,93.70
2022-09-25T04:14:08.257Z,93.70
2022-09-25T04:19:10.649Z,93.60
2022-09-25T04:24:31.506Z,93.80
2022-09-25T04:29:34.638Z,93.50
2022-09-25T04:34:37.031Z,93.40
2022-09-25T04:39:39.618Z,93.30
2022-09-25T04:44:42.071Z,93.30
2022-09-25T04:49:44.564Z,93.20
2022-09-25T04:54:47.810Z,93.20
2022-09-25T04:59:51.077Z,93.10
2022-09-25T05:04:53.618Z,93.10
2022-09-25T05:09:56.099Z,93.10
2022-09-25T05:14:58.505Z,93.00
2022-09-25T05:20:01.041Z,93.00
2022-09-25T05:25:03.697Z,93.00
2022-09-25T05:30:08.908Z,93.00
2022-09-25T05:35:12.048Z,92.90
2022-09-25T05:40:18.252Z,92.90
2022-09-25T05:45:23.379Z,92.90
2022-09-25T05:50:26.167Z,92.90
2022-09-25T05:55:29.793Z,92.80
2022-09-25T06:00:33.477Z,92.70
2022-09-25T06:05:36.311Z,92.70
2022-09-25T06:10:41.970Z,92.70
2022-09-25T06:15:44.457Z,92.60
2022-09-25T06:20:47.135Z,92.50
2022-09-25T06:25:49.511Z,92.50
2022-09-25T06:30:52.108Z,92.50
2022-09-25T06:35:54.523Z,92.60
2022-09-25T06:41:00.380Z,92.70
2022-09-25T06:46:03.926Z,92.70
2022-09-25T06:51:08.958Z,92.70
2022-09-25T06:56:12.619Z,92.70
2022-09-25T07:01:15.265Z,92.70
2022-09-25T07:06:23.767Z,92.90
2022-09-25T07:11:28.263Z,93.00
2022-09-25T07:16:30.957Z,93.00
2022-09-25T07:21:33.376Z,93.00
2022-09-25T07:26:39.803Z,92.90
2022-09-25T07:31:45.200Z,92.60
2022-09-25T07:36:48.084Z,92.60
2022-09-25T07:41:54.004Z,92.50
2022-09-25T07:46:56.531Z,92.30
2022-09-25T07:51:59.661Z,92.00
2022-09-25T07:57:02.132Z,91.70
2022-09-25T08:02:05.362Z,91.70
2022-09-25T08:07:08.169Z,91.80
2022-09-25T08:12:12.990Z,91.90
2022-09-25T08:17:15.433Z,91.80
2022-09-25T08:22:17.886Z,91.80
2022-09-25T08:27:20.413Z,91.70
2022-09-25T08:32:22.922Z,91.70
2022-09-25T08:37:25.298Z,91.60
2022-09-25T08:42:38.136Z,91.50
2022-09-25T08:48:00.123Z,91.50
2022-09-25T08:53:24.610Z,91.50
2022-09-25T08:58:30.905Z,91.60
2022-09-25T09:03:44.682Z,91.60
2022-09-25T09:09:11.870Z,91.50
2022-09-25T09:14:20.816Z,94.00
2022-09-25T09:19:23.484Z,92.70
2022-09-25T09:24:46.545Z,92.10
2022-09-25T09:29:51.612Z,92.00
2022-09-25T09:35:18.801Z,92.00
2022-09-25T09:40:29.772Z,91.90
2022-09-25T09:45:55.499Z,91.80
2022-09-25T09:51:08.688Z,91.60
2022-09-25T09:56:16.160Z,91.50
2022-09-25T10:01:40.347Z,91.60
2022-09-25T10:07:08.535Z,91.60
2022-09-25T10:12:20.846Z,91.50
2022-09-25T10:17:24.296Z,91.50
2022-09-25T10:22:37.629Z,91.40
2022-09-25T10:27:46.109Z,91.00
2022-09-25T10:33:20.324Z,90.90
2022-09-25T10:38:42.126Z,90.50
2022-09-25T10:43:55.159Z,90.50
2022-09-25T10:49:40.474Z,90.00
2022-09-25T10:54:45.689Z,89.10
2022-09-25T10:59:52.860Z,89.70
2022-09-25T11:04:57.168Z,89.80
2022-09-25T11:10:00.512Z,89.10
2022-09-25T11:15:06.294Z,88.80
2022-09-25T11:20:21.549Z,88.10
2022-09-25T11:25:30.361Z,88.00
2022-09-25T11:30:43.442Z,88.50
2022-09-25T11:36:10.290Z,89.10
2022-09-25T11:41:37.548Z,90.00
2022-09-25T11:47:17.719Z,90.10
2022-09-25T11:52:22.879Z,90.30
2022-09-25T11:57:42.568Z,92.20
2022-09-25T12:03:01.403Z,82.80
2022-09-25T12:08:09.775Z,90.70
2022-09-25T12:13:24.207Z,86.00
2022-09-25T12:18:49.810Z,84.00
2022-09-25T12:24:19.205Z,85.00
2022-09-25T12:29:46.476Z,82.00
2022-09-25T12:34:55.755Z,80.50
2022-09-25T12:40:13.532Z,81.20
2022-09-25T12:45:26.161Z,81.10
2022-09-25T12:50:38.601Z,83.60
2022-09-25T12:55:48.446Z,94.70
2022-09-25T13:01:01.968Z,92.00
2022-09-25T13:06:21.999Z,90.00
2022-09-25T13:11:51.023Z,88.80
2022-09-25T13:16:53.499Z,86.30
2022-09-25T13:22:08.412Z,87.90
2022-09-25T13:27:19.129Z,87.50
2022-09-25T13:32:24.059Z,91.20
2022-09-25T13:37:31.731Z,90.60
2022-09-25T13:42:44.144Z,91.60
2022-09-25T13:48:13.358Z,89.80
2022-09-25T13:53:27.783Z,99.40
2022-09-25T13:58:51.333Z,86.80
2022-09-25T14:03:54.226Z,90.10
2022-09-25T14:09:00.639Z,96.00
2022-09-25T14:14:08.369Z,91.70
2022-09-25T14:19:19.290Z,90.30
2022-09-25T14:24:29.842Z,90.30
2022-09-25T14:29:39.793Z,81.50
2022-09-25T14:35:11.737Z,79.90
2022-09-25T14:40:20.492Z,80.70
2022-09-25T14:45:50.189Z,81.50
2022-09-25T14:50:59.275Z,82.00
2022-09-25T14:56:04.110Z,83.60
2022-09-25T15:01:14.936Z,84.30
2022-09-25T15:06:35.970Z,84.80
2022-09-25T15:11:43.551Z,85.70
2022-09-25T15:17:04.869Z,86.60
2022-09-25T15:22:18.198Z,87.50
2022-09-25T15:27:22.682Z,89.00
2022-09-25T15:32:31.061Z,89.90
2022-09-25T15:37:33.585Z,90.40
2022-09-25T15:42:36.251Z,90.70
2022-09-25T15:47:38.742Z,91.20
2022-09-25T15:52:41.345Z,91.50
2022-09-25T15:57:44.415Z,91.80
2022-09-25T16:03:24.205Z,92.20
2022-09-25T16:08:36.499Z,92.50
2022-09-25T16:13:42.599Z,92.80
2022-09-25T16:18:45.404Z,93.10
2022-09-25T16:23:56.206Z,93.30
2022-09-25T16:29:18.057Z,93.50
2022-09-25T16:34:33.625Z,93.70
2022-09-25T16:39:38.076Z,93.80
2022-09-25T16:44:46.865Z,94.50
2022-09-25T16:49:49.700Z,97.60
2022-09-25T16:54:54.585Z,96.80
2022-09-25T16:59:56.999Z,95.50
2022-09-25T17:05:02.236Z,94.60
2022-09-25T17:10:04.885Z,93.60
2022-09-25T17:15:14.879Z,92.80
2022-09-25T17:20:17.242Z,92.40
2022-09-25T17:25:36.681Z,92.00
2022-09-25T17:30:40.415Z,91.60
2022-09-25T17:36:10.861Z,91.40
2022-09-25T17:41:21.611Z,91.20
2022-09-25T17:46:26.788Z,90.90
2022-09-25T17:51:30.147Z,90.70
2022-09-25T17:56:34.977Z,90.70
2022-09-25T18:01:39.637Z,90.60
2022-09-25T18:06:43.702Z,90.60
2022-09-25T18:11:46.459Z,90.40
2022-09-25T18:16:49.042Z,90.50
2022-09-25T18:22:09.935Z,90.50
2022-09-25T18:27:13.485Z,90.60
2022-09-25T18:32:16.055Z,90.60
2022-09-25T18:37:18.373Z,90.70
2022-09-25T18:42:20.848Z,90.70
2022-09-25T18:47:23.351Z,90.80
2022-09-25T18:52:25.838Z,90.80
2022-09-25T18:57:28.445Z,91.00
2022-09-25T19:02:31.662Z,91.00
2022-09-25T19:07:36.385Z,91.20
2022-09-25T19:12:39.387Z,91.20
2022-09-25T19:17:41.944Z,91.30
2022-09-25T19:22:47.468Z,91.50
2022-09-25T19:27:49.935Z,91.60
2022-09-25T19:32:52.401Z,91.80
2022-09-25T19:37:54.838Z,92.00
2022-09-25T19:42:58.048Z,92.00
2022-09-25T19:48:00.519Z,92.00
2022-09-25T19:53:03.008Z,92.00
2022-09-25T19:58:05.463Z,92.10
2022-09-25T20:03:08.681Z,92.10
2022-09-25T20:08:13.149Z,92.10
2022-09-25T20:13:27.713Z,92.20
2022-09-25T20:18:30.103Z,92.10
2022-09-25T20:23:35.156Z,92.10
2022-09-25T20:28:41.636Z,92.20
2022-09-25T20:33:44.148Z,92.20
2022-09-25T20:38:51.026Z,92.20
2022-09-25T20:43:55.684Z,92.30
2022-09-25T20:48:59.440Z,92.30
2022-09-25T20:54:10.204Z,92.40
2022-09-25T20:59:13.908Z,92.40
2022-09-25T21:04:18.209Z,92.60
2022-09-25T21:09:30.184Z,92.50
2022-09-25T21:14:33.726Z,92.50
2022-09-25T21:19:36.448Z,92.50
2022-09-25T21:24:39.699Z,92.40
2022-09-25T21:29:42.176Z,92.30
2022-09-25T21:34:44.766Z,92.40
2022-09-25T21:39:47.175Z,92.40
2022-09-25T21:44:50.339Z,92.30
2022-09-25T21:49:55.515Z,92.30
2022-09-25T21:54:59.859Z,92.40
2022-09-25T22:00:03.442Z,92.40
2022-09-25T22:05:07.223Z,92.50
2022-09-25T22:10:09.598Z,92.50
2022-09-25T22:15:12.962Z,92.50
2022-09-25T22:20:19.951Z,92.60
2022-09-25T22:25:24.455Z,92.60
2022-09-25T22:30:26.946Z,92.70
2022-09-25T22:35:29.484Z,92.80
2022-09-25T22:40:32.103Z,92.90
2022-09-25T22:45:34.618Z,93.00
2022-09-25T22:50:37.059Z,93.00
2022-09-25T22:55:39.445Z,93.10
2022-09-25T23:00:47.473Z,93.30
2022-09-25T23:05:50.027Z,93.30
2022-09-25T23:11:06.609Z,93.30
2022-09-25T23:16:10.033Z,93.30
2022-09-25T23:21:12.583Z,93.30
2022-09-25T23:26:14.910Z,93.50
2022-09-25T23:31:18.440Z,93.50
2022-09-25T23:36:24.783Z,93.50
2022-09-25T23:41:33.912Z,93.60
2022-09-25T23:46:39.845Z,93.60
2022-09-25T23:51:42.306Z,93.70
2022-09-25T23:56:44.704Z,93.80
